sensor_id;sensor_type;location;lat;lon;timestamp;P1;durP1;ratioP1;P2;durP2;ratioP2
3343;SDS011;1685;53.104;8.228;2022-09-19T00:01:32;2.30;;;1.20;;
3343;SDS011;1685;53.104;8.228;2022-09-19T00:04:00;4.50;;;1.20;;
3343;SDS011;1685;53.104;8.228;2022-09-19T00:06:29;7.70;;;1.10;;
3343;SDS011;1685;53.104;8.228;2022-09-19T00:08:58;5.00;;;1.73;;
3343;SDS011;1685;53.104;8.228;2022-09-19T00:11:25;11.03;;;2.10;;
3343;SDS011;1685;53.104;8.228;2022-09-19T00:13:54;4.23;;;1.20;;
3343;SDS011;1685;53.104;8.228;2022-09-19T00:16:24;7.60;;;2.00;;
3343;SDS011;1685;53.104;8.228;2022-09-19T00:18:53;9.10;;;1.63;;
3343;SDS011;1685;53.104;8.228;2022-09-19T00:21:21;6.10;;;1.60;;
3343;SDS011;1685;53.104;8.228;2022-09-19T00:23:49;3.83;;;1.40;;
3343;SDS011;1685;53.104;8.228;2022-09-19T00:26:34;2.43;;;1.40;;
3343;SDS011;1685;53.104;8.228;2022-09-19T00:29:04;3.20;;;1.50;;
3343;SDS011;1685;53.104;8.228;2022-09-19T00:31:31;14.10;;;2.07;;
3343;SDS011;1685;53.104;8.228;2022-09-19T00:33:58;6.03;;;2.10;;
3343;SDS011;1685;53.104;8.228;2022-09-19T00:36:25;10.43;;;1.70;;
3343;SDS011;1685;53.104;8.228;2022-09-19T00:38:52;9.80;;;1.50;;
3343;SDS011;1685;53.104;8.228;2022-09-19T00:41:21;13.87;;;2.90;;
3343;SDS011;1685;53.104;8.228;2022-09-19T00:43:51;22.37;;;2.50;;
3343;SDS011;1685;53.104;8.228;2022-09-19T00:46:21;6.87;;;2.07;;
3343;SDS011;1685;53.104;8.228;2022-09-19T00:48:49;7.90;;;2.23;;
3343;SDS011;1685;53.104;8.228;2022-09-19T00:51:20;13.07;;;3.17;;
3343;SDS011;1685;53.104;8.228;2022-09-19T00:53:56;6.30;;;2.00;;
3343;SDS011;1685;53.104;8.228;2022-09-19T00:56:24;9.93;;;1.60;;
3343;SDS011;1685;53.104;8.228;2022-09-19T00:58:51;4.43;;;1.57;;
3343;SDS011;1685;53.104;8.228;2022-09-19T01:01:19;2.53;;;1.97;;
3343;SDS011;1685;53.104;8.228;2022-09-19T01:03:47;4.43;;;1.70;;
3343;SDS011;1685;53.104;8.228;2022-09-19T01:06:18;3.73;;;1.43;;
3343;SDS011;1685;53.104;8.228;2022-09-19T01:09:02;13.53;;;4.03;;
3343;SDS011;1685;53.104;8.228;2022-09-19T01:11:42;4.73;;;1.73;;
3343;SDS011;1685;53.104;8.228;2022-09-19T01:14:23;10.23;;;1.53;;
3343;SDS011;1685;53.104;8.228;2022-09-19T01:17:05;10.97;;;1.60;;
3343;SDS011;1685;53.104;8.228;2022-09-19T01:19:46;2.60;;;1.50;;
3343;SDS011;1685;53.104;8.228;2022-09-19T01:22:40;2.73;;;1.30;;
3343;SDS011;1685;53.104;8.228;2022-09-19T01:25:17;6.83;;;1.43;;
3343;SDS011;1685;53.104;8.228;2022-09-19T01:28:05;2.30;;;1.20;;
3343;SDS011;1685;53.104;8.228;2022-09-19T01:30:37;1.80;;;1.30;;
3343;SDS011;1685;53.104;8.228;2022-09-19T01:33:08;4.03;;;1.20;;
3343;SDS011;1685;53.104;8.228;2022-09-19T01:35:42;10.23;;;1.23;;
3343;SDS011;1685;53.104;8.228;2022-09-19T01:38:15;1.47;;;1.40;;
3343;SDS011;1685;53.104;8.228;2022-09-19T01:40:46;3.53;;;1.10;;
3343;SDS011;1685;53.104;8.228;2022-09-19T01:43:15;2.83;;;1.30;;
3343;SDS011;1685;53.104;8.228;2022-09-19T01:45:44;6.03;;;1.10;;
3343;SDS011;1685;53.104;8.228;2022-09-19T01:48:12;2.40;;;1.17;;
3343;SDS011;1685;53.104;8.228;2022-09-19T01:53:41;3.13;;;1.03;;
3343;SDS011;1685;53.104;8.228;2022-09-19T01:56:21;5.00;;;1.60;;
3343;SDS011;1685;53.104;8.228;2022-09-19T01:58:58;2.00;;;1.03;;
3343;SDS011;1685;53.104;8.228;2022-09-19T02:01:33;7.37;;;1.20;;
3343;SDS011;1685;53.104;8.228;2022-09-19T02:04:05;1.13;;;1.00;;
3343;SDS011;1685;53.104;8.228;2022-09-19T02:06:40;2.83;;;1.30;;
3343;SDS011;1685;53.104;8.228;2022-09-19T02:09:14;3.33;;;1.20;;
3343;SDS011;1685;53.104;8.228;2022-09-19T02:11:47;1.10;;;1.03;;
3343;SDS011;1685;53.104;8.228;2022-09-19T02:14:19;3.90;;;1.40;;
3343;SDS011;1685;53.104;8.228;2022-09-19T02:16:51;3.00;;;1.50;;
3343;SDS011;1685;53.104;8.228;2022-09-19T02:19:26;2.50;;;1.07;;
3343;SDS011;1685;53.104;8.228;2022-09-19T02:21:58;2.50;;;1.20;;
3343;SDS011;1685;53.104;8.228;2022-09-19T02:24:29;1.60;;;1.50;;
3343;SDS011;1685;53.104;8.228;2022-09-19T02:27:00;2.20;;;1.20;;
3343;SDS011;1685;53.104;8.228;2022-09-19T02:29:35;1.90;;;1.33;;
3343;SDS011;1685;53.104;8.228;2022-09-19T02:32:06;4.07;;;1.50;;
3343;SDS011;1685;53.104;8.228;2022-09-19T02:34:34;2.20;;;1.00;;
3343;SDS011;1685;53.104;8.228;2022-09-19T02:37:02;3.93;;;1.03;;
3343;SDS011;1685;53.104;8.228;2022-09-19T02:39:35;1.40;;;1.30;;
3343;SDS011;1685;53.104;8.228;2022-09-19T02:42:11;7.40;;;1.07;;
3343;SDS011;1685;53.104;8.228;2022-09-19T02:44:47;2.80;;;1.80;;
3343;SDS011;1685;53.104;8.228;2022-09-19T02:47:28;4.30;;;2.13;;
3343;SDS011;1685;53.104;8.228;2022-09-19T02:50:00;2.60;;;1.00;;
3343;SDS011;1685;53.104;8.228;2022-09-19T02:52:33;1.40;;;1.30;;
3343;SDS011;1685;53.104;8.228;2022-09-19T02:55:02;4.83;;;1.50;;
3343;SDS011;1685;53.104;8.228;2022-09-19T02:57:37;17.73;;;1.77;;
3343;SDS011;1685;53.104;8.228;2022-09-19T03:00:07;5.00;;;1.60;;
3343;SDS011;1685;53.104;8.228;2022-09-19T03:02:36;5.53;;;1.93;;
3343;SDS011;1685;53.104;8.228;2022-09-19T03:05:08;4.17;;;1.37;;
3343;SDS011;1685;53.104;8.228;2022-09-19T03:07:37;3.80;;;1.57;;
3343;SDS011;1685;53.104;8.228;2022-09-19T03:10:07;4.20;;;1.30;;
3343;SDS011;1685;53.104;8.228;2022-09-19T03:12:38;5.17;;;1.53;;
3343;SDS011;1685;53.104;8.228;2022-09-19T03:15:17;6.67;;;1.70;;
3343;SDS011;1685;53.104;8.228;2022-09-19T03:17:47;4.13;;;1.57;;
3343;SDS011;1685;53.104;8.228;2022-09-19T03:20:16;4.43;;;1.60;;
3343;SDS011;1685;53.104;8.228;2022-09-19T03:22:44;3.20;;;1.60;;
3343;SDS011;1685;53.104;8.228;2022-09-19T03:25:11;5.07;;;1.60;;
3343;SDS011;1685;53.104;8.228;2022-09-19T03:27:39;3.03;;;1.50;;
3343;SDS011;1685;53.104;8.228;2022-09-19T03:30:07;6.47;;;1.50;;
3343;SDS011;1685;53.104;8.228;2022-09-19T03:32:37;2.80;;;1.53;;
3343;SDS011;1685;53.104;8.228;2022-09-19T03:35:05;3.13;;;1.40;;
3343;SDS011;1685;53.104;8.228;2022-09-19T03:37:32;3.47;;;1.60;;
3343;SDS011;1685;53.104;8.228;2022-09-19T03:39:59;3.73;;;1.90;;
3343;SDS011;1685;53.104;8.228;2022-09-19T03:42:26;5.37;;;1.93;;
3343;SDS011;1685;53.104;8.228;2022-09-19T03:44:53;6.37;;;2.40;;
3343;SDS011;1685;53.104;8.228;2022-09-19T03:47:20;4.17;;;2.20;;
3343;SDS011;1685;53.104;8.228;2022-09-19T03:49:49;3.30;;;1.70;;
3343;SDS011;1685;53.104;8.228;2022-09-19T03:52:16;3.43;;;2.20;;
3343;SDS011;1685;53.104;8.228;2022-09-19T03:54:43;8.80;;;2.70;;
3343;SDS011;1685;53.104;8.228;2022-09-19T03:57:10;11.70;;;2.80;;
3343;SDS011;1685;53.104;8.228;2022-09-19T03:59:38;7.63;;;2.40;;
3343;SDS011;1685;53.104;8.228;2022-09-19T04:02:06;7.50;;;1.97;;
3343;SDS011;1685;53.104;8.228;2022-09-19T04:04:33;4.33;;;1.90;;
3343;SDS011;1685;53.104;8.228;2022-09-19T04:07:02;3.93;;;1.67;;
3343;SDS011;1685;53.104;8.228;2022-09-19T04:09:29;3.17;;;1.93;;
3343;SDS011;1685;53.104;8.228;2022-09-19T04:11:55;3.70;;;2.20;;
3343;SDS011;1685;53.104;8.228;2022-09-19T04:14:23;8.53;;;2.10;;
3343;SDS011;1685;53.104;8.228;2022-09-19T04:16:51;11.23;;;2.23;;
3343;SDS011;1685;53.104;8.228;2022-09-19T04:19:18;7.23;;;2.30;;
3343;SDS011;1685;53.104;8.228;2022-09-19T04:21:45;10.30;;;2.60;;
3343;SDS011;1685;53.104;8.228;2022-09-19T04:24:14;7.60;;;2.13;;
3343;SDS011;1685;53.104;8.228;2022-09-19T04:26:41;3.80;;;2.10;;
3343;SDS011;1685;53.104;8.228;2022-09-19T04:29:09;7.00;;;2.27;;
3343;SDS011;1685;53.104;8.228;2022-09-19T04:31:36;5.13;;;1.97;;
3343;SDS011;1685;53.104;8.228;2022-09-19T04:34:04;3.00;;;1.70;;
3343;SDS011;1685;53.104;8.228;2022-09-19T04:36:31;12.00;;;2.80;;
3343;SDS011;1685;53.104;8.228;2022-09-19T04:38:58;5.77;;;2.10;;
3343;SDS011;1685;53.104;8.228;2022-09-19T04:41:29;6.13;;;2.33;;
3343;SDS011;1685;53.104;8.228;2022-09-19T04:43:57;5.80;;;2.63;;
3343;SDS011;1685;53.104;8.228;2022-09-19T04:46:24;15.80;;;2.50;;
3343;SDS011;1685;53.104;8.228;2022-09-19T04:48:51;4.03;;;2.10;;
3343;SDS011;1685;53.104;8.228;2022-09-19T04:51:19;8.43;;;2.60;;
3343;SDS011;1685;53.104;8.228;2022-09-19T04:53:47;13.40;;;2.90;;
3343;SDS011;1685;53.104;8.228;2022-09-19T04:56:14;5.10;;;2.83;;
3343;SDS011;1685;53.104;8.228;2022-09-19T04:58:43;9.77;;;3.20;;
3343;SDS011;1685;53.104;8.228;2022-09-19T05:01:10;11.20;;;3.20;;
3343;SDS011;1685;53.104;8.228;2022-09-19T05:03:39;3.30;;;2.70;;
3343;SDS011;1685;53.104;8.228;2022-09-19T05:06:08;9.07;;;2.63;;
3343;SDS011;1685;53.104;8.228;2022-09-19T05:08:35;6.90;;;3.63;;
3343;SDS011;1685;53.104;8.228;2022-09-19T05:11:04;18.70;;;4.60;;
3343;SDS011;1685;53.104;8.228;2022-09-19T05:13:32;8.40;;;4.37;;
3343;SDS011;1685;53.104;8.228;2022-09-19T05:16:04;12.73;;;3.80;;
3343;SDS011;1685;53.104;8.228;2022-09-19T05:18:31;15.40;;;3.70;;
3343;SDS011;1685;53.104;8.228;2022-09-19T05:21:02;7.50;;;2.53;;
3343;SDS011;1685;53.104;8.228;2022-09-19T05:23:30;9.80;;;3.40;;
3343;SDS011;1685;53.104;8.228;2022-09-19T05:26:01;14.93;;;2.83;;
3343;SDS011;1685;53.104;8.228;2022-09-19T05:28:29;6.00;;;2.60;;
3343;SDS011;1685;53.104;8.228;2022-09-19T05:30:55;8.77;;;3.07;;
3343;SDS011;1685;53.104;8.228;2022-09-19T05:33:24;10.47;;;3.50;;
3343;SDS011;1685;53.104;8.228;2022-09-19T05:35:51;10.40;;;2.63;;
3343;SDS011;1685;53.104;8.228;2022-09-19T05:38:19;11.83;;;3.00;;
3343;SDS011;1685;53.104;8.228;2022-09-19T05:40:46;10.47;;;2.80;;
3343;SDS011;1685;53.104;8.228;2022-09-19T05:43:13;10.80;;;3.87;;
3343;SDS011;1685;53.104;8.228;2022-09-19T05:45:40;14.00;;;3.33;;
3343;SDS011;1685;53.104;8.228;2022-09-19T05:48:07;11.10;;;2.60;;
3343;SDS011;1685;53.104;8.228;2022-09-19T05:50:36;13.83;;;3.70;;
3343;SDS011;1685;53.104;8.228;2022-09-19T05:53:03;9.67;;;3.13;;
3343;SDS011;1685;53.104;8.228;2022-09-19T05:55:47;14.70;;;3.00;;
3343;SDS011;1685;53.104;8.228;2022-09-19T05:58:14;7.70;;;3.80;;
3343;SDS011;1685;53.104;8.228;2022-09-19T06:00:42;14.70;;;4.53;;
3343;SDS011;1685;53.104;8.228;2022-09-19T06:03:11;6.87;;;3.07;;
3343;SDS011;1685;53.104;8.228;2022-09-19T06:05:43;8.13;;;3.23;;
3343;SDS011;1685;53.104;8.228;2022-09-19T06:08:12;10.23;;;3.80;;
3343;SDS011;1685;53.104;8.228;2022-09-19T06:10:39;22.60;;;3.87;;
3343;SDS011;1685;53.104;8.228;2022-09-19T06:13:08;20.13;;;3.53;;
3343;SDS011;1685;53.104;8.228;2022-09-19T06:15:37;13.70;;;3.40;;
3343;SDS011;1685;53.104;8.228;2022-09-19T06:18:04;14.83;;;3.90;;
3343;SDS011;1685;53.104;8.228;2022-09-19T06:20:31;7.10;;;3.37;;
3343;SDS011;1685;53.104;8.228;2022-09-19T06:23:00;16.47;;;3.90;;
3343;SDS011;1685;53.104;8.228;2022-09-19T06:25:29;17.27;;;3.90;;
3343;SDS011;1685;53.104;8.228;2022-09-19T06:27:56;5.50;;;3.70;;
3343;SDS011;1685;53.104;8.228;2022-09-19T06:30:24;19.50;;;3.50;;
3343;SDS011;1685;53.104;8.228;2022-09-19T06:32:52;15.50;;;4.07;;
3343;SDS011;1685;53.104;8.228;2022-09-19T06:35:19;17.00;;;3.83;;
3343;SDS011;1685;53.104;8.228;2022-09-19T06:37:46;17.10;;;4.37;;
3343;SDS011;1685;53.104;8.228;2022-09-19T06:40:16;17.73;;;4.57;;
3343;SDS011;1685;53.104;8.228;2022-09-19T06:42:45;22.23;;;5.03;;
3343;SDS011;1685;53.104;8.228;2022-09-19T06:45:12;18.13;;;5.13;;
3343;SDS011;1685;53.104;8.228;2022-09-19T06:47:39;24.30;;;5.73;;
3343;SDS011;1685;53.104;8.228;2022-09-19T06:50:06;16.43;;;6.07;;
3343;SDS011;1685;53.104;8.228;2022-09-19T06:52:34;21.37;;;5.03;;
3343;SDS011;1685;53.104;8.228;2022-09-19T06:55:00;19.20;;;4.17;;
3343;SDS011;1685;53.104;8.228;2022-09-19T06:57:29;18.30;;;3.87;;
3343;SDS011;1685;53.104;8.228;2022-09-19T06:59:56;23.03;;;4.47;;
3343;SDS011;1685;53.104;8.228;2022-09-19T07:02:23;31.77;;;4.53;;
3343;SDS011;1685;53.104;8.228;2022-09-19T07:04:50;19.93;;;4.03;;
3343;SDS011;1685;53.104;8.228;2022-09-19T07:07:17;13.90;;;4.87;;
3343;SDS011;1685;53.104;8.228;2022-09-19T07:09:44;18.10;;;4.40;;
3343;SDS011;1685;53.104;8.228;2022-09-19T07:12:11;17.47;;;4.37;;
3343;SDS011;1685;53.104;8.228;2022-09-19T07:14:39;17.13;;;4.17;;
3343;SDS011;1685;53.104;8.228;2022-09-19T07:17:06;14.97;;;3.83;;
3343;SDS011;1685;53.104;8.228;2022-09-19T07:19:33;8.43;;;2.67;;
3343;SDS011;1685;53.104;8.228;2022-09-19T07:22:00;17.03;;;3.60;;
3343;SDS011;1685;53.104;8.228;2022-09-19T07:24:30;21.10;;;4.37;;
3343;SDS011;1685;53.104;8.228;2022-09-19T07:26:57;18.63;;;3.63;;
3343;SDS011;1685;53.104;8.228;2022-09-19T07:29:24;11.97;;;3.20;;
3343;SDS011;1685;53.104;8.228;2022-09-19T07:31:52;15.77;;;3.07;;
3343;SDS011;1685;53.104;8.228;2022-09-19T07:34:19;24.90;;;3.97;;
3343;SDS011;1685;53.104;8.228;2022-09-19T07:36:47;15.33;;;2.83;;
3343;SDS011;1685;53.104;8.228;2022-09-19T07:39:14;26.47;;;4.03;;
3343;SDS011;1685;53.104;8.228;2022-09-19T07:41:41;12.00;;;2.70;;
3343;SDS011;1685;53.104;8.228;2022-09-19T07:44:08;25.10;;;4.53;;
3343;SDS011;1685;53.104;8.228;2022-09-19T07:46:35;14.53;;;2.97;;
3343;SDS011;1685;53.104;8.228;2022-09-19T07:49:03;9.73;;;2.80;;
3343;SDS011;1685;53.104;8.228;2022-09-19T07:51:30;13.80;;;2.60;;
3343;SDS011;1685;53.104;8.228;2022-09-19T07:53:57;19.53;;;3.00;;
3343;SDS011;1685;53.104;8.228;2022-09-19T07:56:24;8.90;;;2.57;;
3343;SDS011;1685;53.104;8.228;2022-09-19T07:58:51;18.23;;;2.70;;
3343;SDS011;1685;53.104;8.228;2022-09-19T08:01:18;18.97;;;3.67;;
3343;SDS011;1685;53.104;8.228;2022-09-19T08:03:45;14.00;;;3.83;;
3343;SDS011;1685;53.104;8.228;2022-09-19T08:06:15;18.83;;;2.50;;
3343;SDS011;1685;53.104;8.228;2022-09-19T08:08:42;19.80;;;3.50;;
3343;SDS011;1685;53.104;8.228;2022-09-19T08:11:09;18.70;;;3.60;;
3343;SDS011;1685;53.104;8.228;2022-09-19T08:13:36;21.20;;;3.40;;
3343;SDS011;1685;53.104;8.228;2022-09-19T08:16:03;18.03;;;3.13;;
3343;SDS011;1685;53.104;8.228;2022-09-19T08:18:31;8.03;;;2.57;;
3343;SDS011;1685;53.104;8.228;2022-09-19T08:20:58;20.80;;;3.30;;
3343;SDS011;1685;53.104;8.228;2022-09-19T08:23:26;19.50;;;4.33;;
3343;SDS011;1685;53.104;8.228;2022-09-19T08:25:54;18.07;;;3.07;;
3343;SDS011;1685;53.104;8.228;2022-09-19T08:28:21;11.80;;;2.63;;
3343;SDS011;1685;53.104;8.228;2022-09-19T08:30:49;13.20;;;2.60;;
3343;SDS011;1685;53.104;8.228;2022-09-19T08:33:16;18.37;;;2.60;;
3343;SDS011;1685;53.104;8.228;2022-09-19T08:35:44;16.77;;;3.03;;
3343;SDS011;1685;53.104;8.228;2022-09-19T08:38:11;8.53;;;2.60;;
3343;SDS011;1685;53.104;8.228;2022-09-19T08:43:33;11.60;;;2.67;;
3343;SDS011;1685;53.104;8.228;2022-09-19T08:46:06;6.37;;;1.60;;
3343;SDS011;1685;53.104;8.228;2022-09-19T08:48:44;3.73;;;1.83;;
3343;SDS011;1685;53.104;8.228;2022-09-19T08:51:17;11.40;;;2.67;;
3343;SDS011;1685;53.104;8.228;2022-09-19T08:53:50;13.43;;;2.37;;
3343;SDS011;1685;53.104;8.228;2022-09-19T08:56:23;8.20;;;2.27;;
3343;SDS011;1685;53.104;8.228;2022-09-19T08:58:57;11.97;;;2.00;;
3343;SDS011;1685;53.104;8.228;2022-09-19T09:01:28;7.63;;;2.00;;
3343;SDS011;1685;53.104;8.228;2022-09-19T09:04:02;10.60;;;2.23;;
3343;SDS011;1685;53.104;8.228;2022-09-19T09:06:41;9.23;;;1.47;;
3343;SDS011;1685;53.104;8.228;2022-09-19T09:09:19;18.70;;;2.43;;
3343;SDS011;1685;53.104;8.228;2022-09-19T09:11:57;8.30;;;1.97;;
3343;SDS011;1685;53.104;8.228;2022-09-19T09:14:43;8.77;;;2.40;;
3343;SDS011;1685;53.104;8.228;2022-09-19T09:17:17;9.90;;;2.60;;
3343;SDS011;1685;53.104;8.228;2022-09-19T09:22:48;13.10;;;3.10;;
3343;SDS011;1685;53.104;8.228;2022-09-19T09:25:18;9.70;;;2.20;;
3343;SDS011;1685;53.104;8.228;2022-09-19T09:27:52;20.10;;;2.80;;
3343;SDS011;1685;53.104;8.228;2022-09-19T09:30:21;16.50;;;2.60;;
3343;SDS011;1685;53.104;8.228;2022-09-19T09:32:50;10.93;;;2.97;;
3343;SDS011;1685;53.104;8.228;2022-09-19T09:35:24;15.37;;;2.40;;
3343;SDS011;1685;53.104;8.228;2022-09-19T09:37:56;8.20;;;2.30;;
3343;SDS011;1685;53.104;8.228;2022-09-19T09:40:33;9.43;;;2.37;;
3343;SDS011;1685;53.104;8.228;2022-09-19T09:43:26;13.00;;;2.40;;
3343;SDS011;1685;53.104;8.228;2022-09-19T09:46:01;16.70;;;3.10;;
3343;SDS011;1685;53.104;8.228;2022-09-19T09:48:36;13.03;;;2.60;;
3343;SDS011;1685;53.104;8.228;2022-09-19T09:51:09;12.93;;;2.67;;
3343;SDS011;1685;53.104;8.228;2022-09-19T09:53:51;21.10;;;4.10;;
3343;SDS011;1685;53.104;8.228;2022-09-19T09:56:52;13.80;;;2.03;;
3343;SDS011;1685;53.104;8.228;2022-09-19T09:59:28;8.10;;;2.00;;
3343;SDS011;1685;53.104;8.228;2022-09-19T10:02:19;13.40;;;2.23;;
3343;SDS011;1685;53.104;8.228;2022-09-19T10:05:26;10.90;;;1.73;;
3343;SDS011;1685;53.104;8.228;2022-09-19T10:07:59;12.97;;;2.17;;
3343;SDS011;1685;53.104;8.228;2022-09-19T10:10:36;8.27;;;1.87;;
3343;SDS011;1685;53.104;8.228;2022-09-19T10:13:07;7.60;;;1.90;;
3343;SDS011;1685;53.104;8.228;2022-09-19T10:15:41;14.17;;;2.40;;
3343;SDS011;1685;53.104;8.228;2022-09-19T10:18:09;13.23;;;2.03;;
3343;SDS011;1685;53.104;8.228;2022-09-19T10:20:39;5.40;;;1.50;;
3343;SDS011;1685;53.104;8.228;2022-09-19T10:23:15;11.37;;;2.40;;
3343;SDS011;1685;53.104;8.228;2022-09-19T10:25:48;7.03;;;1.67;;
3343;SDS011;1685;53.104;8.228;2022-09-19T10:28:16;16.63;;;2.60;;
3343;SDS011;1685;53.104;8.228;2022-09-19T10:30:57;9.03;;;2.20;;
3343;SDS011;1685;53.104;8.228;2022-09-19T10:33:29;6.67;;;1.43;;
3343;SDS011;1685;53.104;8.228;2022-09-19T10:36:04;12.10;;;2.33;;
3343;SDS011;1685;53.104;8.228;2022-09-19T10:38:46;9.80;;;2.20;;
3343;SDS011;1685;53.104;8.228;2022-09-19T10:41:14;9.13;;;2.03;;
3343;SDS011;1685;53.104;8.228;2022-09-19T10:43:45;13.80;;;2.53;;
3343;SDS011;1685;53.104;8.228;2022-09-19T10:46:16;11.60;;;2.40;;
3343;SDS011;1685;53.104;8.228;2022-09-19T10:48:48;10.60;;;2.17;;
3343;SDS011;1685;53.104;8.228;2022-09-19T10:51:17;15.10;;;2.77;;
3343;SDS011;1685;53.104;8.228;2022-09-19T10:53:46;11.80;;;2.70;;
3343;SDS011;1685;53.104;8.228;2022-09-19T10:56:18;13.20;;;2.50;;
3343;SDS011;1685;53.104;8.228;2022-09-19T10:58:49;15.93;;;1.93;;
3343;SDS011;1685;53.104;8.228;2022-09-19T11:01:25;11.30;;;2.67;;
3343;SDS011;1685;53.104;8.228;2022-09-19T11:03:59;7.50;;;2.30;;
3343;SDS011;1685;53.104;8.228;2022-09-19T11:06:28;7.27;;;2.90;;
3343;SDS011;1685;53.104;8.228;2022-09-19T11:08:58;11.60;;;2.50;;
3343;SDS011;1685;53.104;8.228;2022-09-19T11:11:27;7.83;;;1.83;;
3343;SDS011;1685;53.104;8.228;2022-09-19T11:14:17;11.20;;;2.30;;
3343;SDS011;1685;53.104;8.228;2022-09-19T11:16:53;10.30;;;2.23;;
3343;SDS011;1685;53.104;8.228;2022-09-19T11:19:42;13.50;;;3.00;;
3343;SDS011;1685;53.104;8.228;2022-09-19T11:22:29;7.27;;;2.17;;
3343;SDS011;1685;53.104;8.228;2022-09-19T11:25:06;10.20;;;2.40;;
3343;SDS011;1685;53.104;8.228;2022-09-19T11:27:49;13.83;;;2.23;;
3343;SDS011;1685;53.104;8.228;2022-09-19T11:30:25;17.90;;;2.80;;
3343;SDS011;1685;53.104;8.228;2022-09-19T11:33:04;9.20;;;1.83;;
3343;SDS011;1685;53.104;8.228;2022-09-19T11:35:54;7.53;;;1.77;;
3343;SDS011;1685;53.104;8.228;2022-09-19T11:38:30;10.20;;;2.47;;
3343;SDS011;1685;53.104;8.228;2022-09-19T11:43:59;6.23;;;1.83;;
3343;SDS011;1685;53.104;8.228;2022-09-19T11:46:46;5.57;;;1.57;;
3343;SDS011;1685;53.104;8.228;2022-09-19T11:49:32;6.53;;;1.70;;
3343;SDS011;1685;53.104;8.228;2022-09-19T11:52:20;9.37;;;1.80;;
3343;SDS011;1685;53.104;8.228;2022-09-19T11:54:57;8.90;;;2.53;;
3343;SDS011;1685;53.104;8.228;2022-09-19T11:57:37;8.90;;;1.87;;
3343;SDS011;1685;53.104;8.228;2022-09-19T12:00:15;10.23;;;2.00;;
3343;SDS011;1685;53.104;8.228;2022-09-19T12:02:49;7.40;;;2.87;;
3343;SDS011;1685;53.104;8.228;2022-09-19T12:05:28;9.30;;;2.30;;
3343;SDS011;1685;53.104;8.228;2022-09-19T12:08:09;19.63;;;2.40;;
3343;SDS011;1685;53.104;8.228;2022-09-19T12:10:46;12.33;;;2.50;;
3343;SDS011;1685;53.104;8.228;2022-09-19T12:13:17;7.43;;;2.23;;
3343;SDS011;1685;53.104;8.228;2022-09-19T12:15:49;10.33;;;2.13;;
3343;SDS011;1685;53.104;8.228;2022-09-19T12:18:20;7.23;;;2.60;;
3343;SDS011;1685;53.104;8.228;2022-09-19T12:20:52;10.53;;;1.80;;
3343;SDS011;1685;53.104;8.228;2022-09-19T12:23:21;7.27;;;1.90;;
3343;SDS011;1685;53.104;8.228;2022-09-19T12:26:10;13.53;;;2.17;;
3343;SDS011;1685;53.104;8.228;2022-09-19T12:28:42;22.10;;;3.07;;
3343;SDS011;1685;53.104;8.228;2022-09-19T12:31:14;14.00;;;2.67;;
3343;SDS011;1685;53.104;8.228;2022-09-19T12:33:46;8.87;;;1.80;;
3343;SDS011;1685;53.104;8.228;2022-09-19T12:36:19;7.70;;;2.30;;
3343;SDS011;1685;53.104;8.228;2022-09-19T12:38:55;6.57;;;2.13;;
3343;SDS011;1685;53.104;8.228;2022-09-19T12:41:29;19.93;;;3.00;;
3343;SDS011;1685;53.104;8.228;2022-09-19T12:44:06;11.60;;;2.17;;
3343;SDS011;1685;53.104;8.228;2022-09-19T12:46:41;7.97;;;2.30;;
3343;SDS011;1685;53.104;8.228;2022-09-19T12:49:17;11.60;;;2.30;;
3343;SDS011;1685;53.104;8.228;2022-09-19T12:51:55;11.87;;;1.90;;
3343;SDS011;1685;53.104;8.228;2022-09-19T12:54:29;15.70;;;2.27;;
3343;SDS011;1685;53.104;8.228;2022-09-19T12:57:02;26.20;;;2.90;;
3343;SDS011;1685;53.104;8.228;2022-09-19T12:59:34;12.27;;;2.03;;
3343;SDS011;1685;53.104;8.228;2022-09-19T13:02:01;17.73;;;2.40;;
3343;SDS011;1685;53.104;8.228;2022-09-19T13:04:39;13.23;;;2.60;;
3343;SDS011;1685;53.104;8.228;2022-09-19T13:07:12;12.00;;;2.13;;
3343;SDS011;1685;53.104;8.228;2022-09-19T13:09:48;13.03;;;2.47;;
3343;SDS011;1685;53.104;8.228;2022-09-19T13:12:20;11.80;;;2.10;;
3343;SDS011;1685;53.104;8.228;2022-09-19T13:14:58;7.00;;;1.83;;
3343;SDS011;1685;53.104;8.228;2022-09-19T13:17:27;4.90;;;1.73;;
3343;SDS011;1685;53.104;8.228;2022-09-19T13:20:24;26.27;;;2.90;;
3343;SDS011;1685;53.104;8.228;2022-09-19T13:23:15;15.10;;;2.60;;
3343;SDS011;1685;53.104;8.228;2022-09-19T13:26:14;9.53;;;2.03;;
3343;SDS011;1685;53.104;8.228;2022-09-19T13:28:44;13.10;;;2.10;;
3343;SDS011;1685;53.104;8.228;2022-09-19T13:31:13;12.40;;;3.43;;
3343;SDS011;1685;53.104;8.228;2022-09-19T13:33:46;11.00;;;2.87;;
3343;SDS011;1685;53.104;8.228;2022-09-19T13:36:16;7.17;;;2.10;;
3343;SDS011;1685;53.104;8.228;2022-09-19T13:39:03;9.97;;;1.90;;
3343;SDS011;1685;53.104;8.228;2022-09-19T13:41:51;10.80;;;2.37;;
3343;SDS011;1685;53.104;8.228;2022-09-19T13:44:20;21.73;;;2.00;;
3343;SDS011;1685;53.104;8.228;2022-09-19T13:46:53;15.03;;;2.40;;
3343;SDS011;1685;53.104;8.228;2022-09-19T13:49:25;11.10;;;3.80;;
3343;SDS011;1685;53.104;8.228;2022-09-19T13:51:59;7.20;;;2.13;;
3343;SDS011;1685;53.104;8.228;2022-09-19T13:54:36;13.70;;;2.70;;
3343;SDS011;1685;53.104;8.228;2022-09-19T13:57:15;10.07;;;2.20;;
3343;SDS011;1685;53.104;8.228;2022-09-19T13:59:49;10.50;;;2.20;;
3343;SDS011;1685;53.104;8.228;2022-09-19T14:02:19;11.87;;;2.27;;
3343;SDS011;1685;53.104;8.228;2022-09-19T14:04:52;10.77;;;2.57;;
3343;SDS011;1685;53.104;8.228;2022-09-19T14:07:28;16.97;;;2.60;;
3343;SDS011;1685;53.104;8.228;2022-09-19T14:10:00;13.60;;;2.43;;
3343;SDS011;1685;53.104;8.228;2022-09-19T14:18:42;16.63;;;2.47;;
3343;SDS011;1685;53.104;8.228;2022-09-19T14:24:31;10.13;;;2.23;;
3343;SDS011;1685;53.104;8.228;2022-09-19T14:27:11;11.27;;;2.33;;
3343;SDS011;1685;53.104;8.228;2022-09-19T14:29:48;20.77;;;2.97;;
3343;SDS011;1685;53.104;8.228;2022-09-19T14:32:24;10.20;;;1.67;;
3343;SDS011;1685;53.104;8.228;2022-09-19T14:35:19;14.77;;;2.30;;
3343;SDS011;1685;53.104;8.228;2022-09-19T14:38:05;13.30;;;3.07;;
3343;SDS011;1685;53.104;8.228;2022-09-19T14:41:01;12.43;;;2.63;;
3343;SDS011;1685;53.104;8.228;2022-09-19T14:46:52;13.93;;;2.73;;
3343;SDS011;1685;53.104;8.228;2022-09-19T14:49:24;14.43;;;1.97;;
3343;SDS011;1685;53.104;8.228;2022-09-19T14:51:56;21.30;;;2.40;;
3343;SDS011;1685;53.104;8.228;2022-09-19T14:54:30;10.33;;;2.40;;
3343;SDS011;1685;53.104;8.228;2022-09-19T14:57:02;9.73;;;1.80;;
3343;SDS011;1685;53.104;8.228;2022-09-19T14:59:33;11.70;;;2.67;;
3343;SDS011;1685;53.104;8.228;2022-09-19T15:02:14;14.03;;;2.57;;
3343;SDS011;1685;53.104;8.228;2022-09-19T15:04:46;14.63;;;3.00;;
3343;SDS011;1685;53.104;8.228;2022-09-19T15:07:16;20.23;;;2.43;;
3343;SDS011;1685;53.104;8.228;2022-09-19T15:09:43;12.23;;;2.17;;
3343;SDS011;1685;53.104;8.228;2022-09-19T15:12:11;14.57;;;2.00;;
3343;SDS011;1685;53.104;8.228;2022-09-19T15:14:43;14.13;;;2.07;;
3343;SDS011;1685;53.104;8.228;2022-09-19T15:17:12;12.60;;;2.60;;
3343;SDS011;1685;53.104;8.228;2022-09-19T15:19:42;14.33;;;2.70;;
3343;SDS011;1685;53.104;8.228;2022-09-19T15:22:22;11.73;;;2.20;;
3343;SDS011;1685;53.104;8.228;2022-09-19T15:24:52;8.67;;;1.90;;
3343;SDS011;1685;53.104;8.228;2022-09-19T15:27:20;21.33;;;3.00;;
3343;SDS011;1685;53.104;8.228;2022-09-19T15:29:49;13.40;;;2.50;;
3343;SDS011;1685;53.104;8.228;2022-09-19T15:32:17;11.33;;;2.03;;
3343;SDS011;1685;53.104;8.228;2022-09-19T15:34:51;10.50;;;2.70;;
3343;SDS011;1685;53.104;8.228;2022-09-19T15:37:20;16.87;;;2.23;;
3343;SDS011;1685;53.104;8.228;2022-09-19T15:39:48;17.13;;;4.60;;
3343;SDS011;1685;53.104;8.228;2022-09-19T15:42:16;11.97;;;2.33;;
3343;SDS011;1685;53.104;8.228;2022-09-19T15:44:44;10.90;;;2.20;;
3343;SDS011;1685;53.104;8.228;2022-09-19T15:47:13;8.13;;;1.80;;
3343;SDS011;1685;53.104;8.228;2022-09-19T15:49:43;15.37;;;2.40;;
3343;SDS011;1685;53.104;8.228;2022-09-19T15:52:15;6.40;;;1.73;;
3343;SDS011;1685;53.104;8.228;2022-09-19T15:54:46;5.53;;;2.17;;
3343;SDS011;1685;53.104;8.228;2022-09-19T15:57:22;6.40;;;1.70;;
3343;SDS011;1685;53.104;8.228;2022-09-19T15:59:57;6.00;;;1.53;;
3343;SDS011;1685;53.104;8.228;2022-09-19T16:02:33;6.30;;;1.83;;